This is the latest recevied weather packets stored in our database for station/object KO4LCK. If no packets are shown the sender has not sent any weather packets the latest 10 day(s).
| Time | Temp. | Humidity | Pressure | Rain* | Wind** | Luminosity | Snow |
|---|---|---|---|---|---|---|---|
| 1788022377 | 29.44° C | 72% | 1022.4 hPa | 0 mm | - | 377 W/m² | - |
| 1788022076 | 28.89° C | 72% | 1022.5 hPa | 0 mm | - | 520 W/m² | - |
| 1788021771 | 28.33° C | 75% | 1022.5 hPa | 0 mm | - | 339 W/m² | - |
| 1788021469 | 28.89° C | 73% | 1022.4 hPa | 0 mm | - | 247 W/m² | - |
| 1788021173 | 28.33° C | 74% | 1022.5 hPa | 0 mm | - | 206 W/m² | - |
| 1788020860 | 28.33° C | 74% | 1022.4 hPa | 0 mm | - | 217 W/m² | - |
| 1788020554 | 28.33° C | 75% | 1022.2 hPa | 0 mm | - | 276 W/m² | - |
| 1788020251 | 28.33° C | 76% | 1022.3 hPa | 0 mm | - | 710 W/m² | - |
| 1788019946 | 28.33° C | 75% | 1022.2 hPa | 0 mm | - | 387 W/m² | - |
| 1788019645 | 27.78° C | 76% | 1022.3 hPa | 0 mm | - | 508 W/m² | - |
| 1788019340 | 27.78° C | 76% | 1022.4 hPa | 0 mm | - | 228 W/m² | - |
| 1788019038 | 27.78° C | 76% | 1022.1 hPa | 0 mm | - | 237 W/m² | - |
| 1788018733 | 27.22° C | 78% | 1022.4 hPa | 0 mm | - | 268 W/m² | - |
| 1788018432 | 27.22° C | 78% | 1022.2 hPa | 0 mm | - | 245 W/m² | - |
| 1788018126 | 27.22° C | 78% | 1022.3 hPa | 0 mm | - | 220 W/m² | - |
| 1788017823 | 27.22° C | 78% | 1022.1 hPa | 0 mm | - | 218 W/m² | - |
| 1788017514 | 27.22° C | 78% | 1022.4 hPa | 0 mm | - | 206 W/m² | - |
| 1788017211 | 27.22° C | 78% | 1022.2 hPa | 0 mm | - | 229 W/m² | - |
| 1788016911 | 26.67° C | 78% | 1022.2 hPa | 0 mm | - | 206 W/m² | - |
| 1788016608 | 27.22° C | 77% | 1022.3 hPa | 0 mm | - | 200 W/m² | - |
| 1788016303 | 27.22° C | 76% | 1022.2 hPa | 0 mm | - | 225 W/m² | - |
| 1788016003 | 27.22° C | 78% | 1022.2 hPa | 0 mm | - | 209 W/m² | - |
| 1788015697 | 27.22° C | 78% | 1022.1 hPa | 0 mm | - | 266 W/m² | - |
| 1788015397 | 26.67° C | 79% | 1021.9 hPa | 0 mm | - | 205 W/m² | - |
| 1788015097 | 26.67° C | 80% | 1022 hPa | 0 mm | - | 345 W/m² | - |
* Rain latest hour (hover to see other rain measurements)
** Current wind speed in m/s (hover to see current wind gust speed)